createdAt,value
2022-11-16T00:02:06.876Z,86.23
2022-11-16T00:04:36.579Z,86.45
2022-11-16T00:07:04.347Z,86.03
2022-11-16T00:09:32.502Z,85.56
2022-11-16T00:12:17.046Z,86.57
2022-11-16T00:15:02.800Z,87.45
2022-11-16T00:17:45.388Z,87.04
2022-11-16T00:20:30.205Z,86.77
2022-11-16T00:23:00.228Z,87.00
2022-11-16T00:25:53.587Z,86.88
2022-11-16T00:28:29.390Z,86.37
2022-11-16T00:31:09.213Z,86.46
2022-11-16T00:33:55.063Z,86.13
2022-11-16T00:36:46.620Z,86.65
2022-11-16T00:39:25.017Z,86.68
2022-11-16T00:42:01.982Z,87.26
2022-11-16T00:44:47.588Z,87.34
2022-11-16T00:47:16.400Z,86.62
2022-11-16T00:49:43.027Z,86.17
2022-11-16T00:52:09.692Z,86.00
2022-11-16T00:54:39.118Z,85.98
2022-11-16T00:57:05.649Z,86.80
2022-11-16T00:59:36.168Z,87.35
2022-11-16T01:02:03.656Z,87.47
2022-11-16T01:04:31.185Z,87.03
2022-11-16T01:06:57.895Z,86.98
2022-11-16T01:09:26.702Z,86.60
2022-11-16T01:12:12.753Z,86.73
2022-11-16T01:14:43.724Z,87.40
2022-11-16T01:17:11.642Z,86.81
2022-11-16T01:19:39.555Z,86.75
2022-11-16T01:22:06.734Z,87.35
2022-11-16T01:24:39.538Z,86.82
2022-11-16T01:27:09.038Z,87.19
2022-11-16T01:29:35.714Z,87.11
2022-11-16T01:32:02.235Z,86.41
2022-11-16T01:34:28.839Z,86.72
2022-11-16T01:36:55.399Z,86.68
2022-11-16T01:39:21.901Z,86.51
2022-11-16T01:41:48.621Z,86.59
2022-11-16T01:44:15.112Z,86.08
2022-11-16T01:46:47.961Z,86.74
2022-11-16T01:49:19.528Z,86.35
2022-11-16T01:51:52.903Z,86.37
2022-11-16T01:54:21.812Z,86.10
2022-11-16T01:56:56.574Z,86.48
2022-11-16T01:59:26.227Z,86.37
2022-11-16T02:01:52.919Z,86.79
2022-11-16T02:04:19.630Z,86.90
2022-11-16T02:07:17.273Z,86.09
2022-11-16T02:09:58.344Z,86.70
2022-11-16T02:12:40.286Z,86.34
2022-11-16T02:15:34.846Z,86.30
2022-11-16T02:18:04.310Z,85.58
2022-11-16T02:20:51.791Z,85.94
2022-11-16T02:23:33.725Z,85.68
2022-11-16T02:26:09.566Z,85.84
2022-11-16T02:29:04.170Z,86.14
2022-11-16T02:31:41.721Z,86.34
2022-11-16T02:34:11.444Z,85.66
2022-11-16T02:36:41.627Z,86.12
2022-11-16T02:39:14.861Z,86.45
2022-11-16T02:41:44.178Z,86.83
2022-11-16T02:44:40.292Z,86.67
2022-11-16T02:47:11.803Z,86.63
2022-11-16T02:49:45.444Z,86.03
2022-11-16T02:52:22.850Z,85.36
2022-11-16T02:54:49.659Z,86.01
2022-11-16T02:57:26.332Z,85.63
2022-11-16T03:00:01.334Z,84.76
2022-11-16T03:02:42.753Z,85.04
2022-11-16T03:05:18.288Z,85.40
2022-11-16T03:07:50.987Z,84.19
2022-11-16T03:10:52.084Z,84.57
2022-11-16T03:13:23.401Z,85.69
2022-11-16T03:15:50.905Z,85.96
2022-11-16T03:18:22.393Z,85.54
2022-11-16T03:20:52.920Z,85.53
2022-11-16T03:23:20.561Z,85.63
2022-11-16T03:25:51.706Z,85.04
2022-11-16T03:28:44.135Z,85.77
2022-11-16T03:31:21.456Z,86.68
2022-11-16T03:33:53.920Z,86.15
2022-11-16T03:36:31.988Z,86.06
2022-11-16T03:39:04.432Z,86.10
2022-11-16T03:41:33.195Z,85.29
2022-11-16T03:44:00.610Z,85.48
2022-11-16T03:46:27.240Z,86.00
2022-11-16T03:49:01.390Z,85.79
2022-11-16T03:51:30.570Z,86.24
2022-11-16T03:54:05.947Z,86.05
2022-11-16T03:56:35.653Z,86.19
2022-11-16T03:59:02.241Z,85.56
2022-11-16T04:01:29.045Z,85.69
2022-11-16T04:04:01.759Z,86.02
2022-11-16T04:06:47.021Z,86.17
2022-11-16T04:09:35.215Z,86.57
2022-11-16T04:12:20.359Z,86.56
2022-11-16T04:15:19.558Z,87.21
2022-11-16T04:18:04.451Z,86.90
2022-11-16T04:20:52.750Z,86.40
2022-11-16T04:23:40.711Z,86.90
2022-11-16T04:26:10.442Z,86.54
2022-11-16T04:28:38.061Z,85.92
2022-11-16T04:31:24.228Z,86.19
2022-11-16T04:34:11.123Z,86.45
2022-11-16T04:36:56.655Z,86.43
2022-11-16T04:39:23.190Z,86.08
2022-11-16T04:42:14.310Z,85.58
2022-11-16T04:44:59.401Z,85.71
2022-11-16T04:47:30.916Z,85.30
2022-11-16T04:49:57.507Z,85.45
2022-11-16T04:52:24.222Z,86.15
2022-11-16T04:54:53.772Z,85.98
2022-11-16T04:57:20.644Z,85.53
2022-11-16T04:59:47.303Z,85.11
2022-11-16T05:02:15.226Z,85.05
2022-11-16T05:04:46.548Z,84.57
2022-11-16T05:07:17.281Z,84.72
2022-11-16T05:09:46.551Z,84.37
2022-11-16T05:12:16.054Z,84.81
2022-11-16T05:14:46.992Z,84.85
2022-11-16T05:17:14.695Z,84.83
2022-11-16T05:19:59.895Z,83.81
2022-11-16T05:22:26.745Z,84.23
2022-11-16T05:24:53.707Z,84.23
2022-11-16T05:27:22.988Z,84.04
2022-11-16T05:29:50.794Z,84.83
2022-11-16T05:32:19.343Z,84.82
2022-11-16T05:34:46.646Z,84.72
2022-11-16T05:37:21.153Z,84.03
2022-11-16T05:39:50.896Z,84.26
2022-11-16T05:42:17.574Z,84.77
2022-11-16T05:44:44.760Z,84.59
2022-11-16T05:47:11.435Z,84.90
2022-11-16T05:49:38.125Z,84.24
2022-11-16T05:52:04.700Z,85.34
2022-11-16T05:54:31.390Z,84.85
2022-11-16T05:57:00.764Z,84.28
2022-11-16T05:59:29.341Z,84.24
2022-11-16T06:01:55.991Z,83.65
2022-11-16T06:04:24.813Z,84.01
2022-11-16T06:06:52.071Z,84.44
2022-11-16T06:09:21.987Z,84.87
2022-11-16T06:11:48.869Z,84.67
2022-11-16T06:14:15.723Z,84.99
2022-11-16T06:16:42.360Z,84.39
2022-11-16T06:19:11.143Z,84.67
2022-11-16T06:21:37.687Z,85.64
2022-11-16T06:24:09.635Z,85.86
2022-11-16T06:26:37.070Z,86.39
2022-11-16T06:29:04.183Z,86.41
2022-11-16T06:31:34.045Z,85.61
2022-11-16T06:34:00.645Z,85.88
2022-11-16T06:36:27.216Z,86.29
2022-11-16T06:38:53.969Z,85.92
2022-11-16T06:41:21.849Z,85.31
2022-11-16T06:43:48.453Z,86.14
2022-11-16T06:46:23.933Z,86.06
2022-11-16T06:48:50.896Z,85.85
2022-11-16T06:51:21.659Z,85.61
2022-11-16T06:53:54.014Z,85.75
2022-11-16T06:56:23.598Z,86.04
2022-11-16T06:58:53.271Z,86.14
2022-11-16T07:01:20.752Z,84.50
2022-11-16T07:03:55.367Z,84.50
2022-11-16T07:06:27.930Z,83.93
2022-11-16T07:08:54.557Z,83.46
2022-11-16T07:11:21.477Z,84.38
2022-11-16T07:13:49.387Z,84.86
2022-11-16T07:16:16.035Z,85.19
2022-11-16T07:18:42.686Z,85.44
2022-11-16T07:21:15.979Z,85.71
2022-11-16T07:23:43.456Z,86.16
2022-11-16T07:26:13.707Z,86.28
2022-11-16T07:28:45.022Z,86.07
2022-11-16T07:31:16.014Z,86.64
2022-11-16T07:33:45.540Z,86.25
2022-11-16T07:36:14.429Z,86.30
2022-11-16T07:38:47.603Z,87.47
2022-11-16T07:41:17.094Z,87.35
2022-11-16T07:43:47.200Z,87.90
2022-11-16T07:49:16.056Z,86.45
2022-11-16T07:51:43.358Z,87.29
2022-11-16T07:54:16.438Z,86.04
2022-11-16T07:56:43.800Z,85.94
2022-11-16T07:59:17.424Z,85.97
2022-11-16T08:01:46.508Z,86.39
2022-11-16T08:04:13.269Z,86.85
2022-11-16T08:06:41.980Z,87.40
2022-11-16T08:09:09.483Z,86.46
2022-11-16T08:11:36.101Z,86.73
2022-11-16T08:14:07.262Z,86.45
2022-11-16T08:16:36.420Z,85.75
2022-11-16T08:19:05.786Z,86.03
2022-11-16T08:21:33.013Z,86.33
2022-11-16T08:24:01.289Z,86.08
2022-11-16T08:26:27.991Z,85.73
2022-11-16T08:28:56.605Z,84.72
2022-11-16T08:31:26.291Z,84.18
2022-11-16T08:33:53.039Z,84.69
2022-11-16T08:36:20.587Z,85.31
2022-11-16T08:38:49.429Z,85.42
2022-11-16T08:41:17.348Z,85.33
2022-11-16T08:43:47.135Z,85.02
2022-11-16T08:46:18.272Z,84.26
2022-11-16T08:48:46.096Z,84.62
2022-11-16T08:51:27.120Z,84.22
2022-11-16T08:54:00.007Z,83.52
2022-11-16T08:56:27.530Z,83.06
2022-11-16T08:58:58.667Z,83.61
2022-11-16T09:01:28.709Z,84.07
2022-11-16T09:03:56.866Z,84.85
2022-11-16T09:06:24.816Z,84.73
2022-11-16T09:08:51.992Z,85.15
2022-11-16T09:11:22.019Z,85.20
2022-11-16T09:13:50.472Z,85.60
2022-11-16T09:16:17.950Z,85.76
2022-11-16T09:18:49.941Z,85.75
2022-11-16T09:21:28.263Z,85.48
2022-11-16T09:23:56.173Z,85.65
2022-11-16T09:26:24.588Z,85.92
2022-11-16T09:29:03.417Z,85.32
2022-11-16T09:31:34.288Z,85.36
2022-11-16T09:34:01.377Z,85.35
2022-11-16T09:36:29.054Z,84.69
2022-11-16T09:39:23.639Z,84.44
2022-11-16T09:42:16.252Z,84.26
2022-11-16T09:45:06.420Z,82.64
2022-11-16T09:47:51.825Z,84.01
2022-11-16T09:50:51.817Z,83.83
2022-11-16T09:53:34.212Z,82.72
2022-11-16T09:56:10.841Z,83.18
2022-11-16T09:59:06.270Z,83.51
2022-11-16T10:02:02.208Z,82.92
2022-11-16T10:04:46.560Z,82.26
2022-11-16T10:07:16.899Z,83.32
2022-11-16T10:09:47.002Z,83.88
2022-11-16T10:12:40.333Z,84.34
2022-11-16T10:15:15.504Z,84.45
2022-11-16T10:17:59.949Z,83.63
2022-11-16T10:20:54.472Z,83.55
2022-11-16T10:23:39.617Z,83.55
2022-11-16T10:26:21.611Z,83.48
2022-11-16T10:28:54.031Z,82.65
2022-11-16T10:31:21.600Z,83.32
2022-11-16T10:33:52.377Z,82.89
2022-11-16T10:36:27.081Z,79.84
2022-11-16T10:38:57.114Z,80.31
2022-11-16T10:41:43.262Z,79.77
2022-11-16T10:44:21.913Z,78.07
2022-11-16T10:47:05.632Z,78.96
2022-11-16T10:49:40.882Z,79.37
2022-11-16T10:52:10.453Z,79.94
2022-11-16T10:54:42.874Z,80.30
2022-11-16T10:57:15.982Z,78.51
2022-11-16T10:59:47.492Z,77.83
2022-11-16T11:02:33.684Z,78.45
2022-11-16T11:05:17.471Z,77.50
2022-11-16T11:08:02.186Z,77.15
2022-11-16T11:10:32.282Z,78.36
2022-11-16T11:13:11.283Z,78.66
2022-11-16T11:15:40.508Z,78.93
2022-11-16T11:18:16.104Z,77.90
2022-11-16T11:20:46.768Z,76.77
2022-11-16T11:23:22.302Z,78.16
2022-11-16T11:26:05.455Z,78.64
2022-11-16T11:28:34.863Z,78.94
2022-11-16T11:31:17.142Z,78.27
2022-11-16T11:33:57.355Z,78.41
2022-11-16T11:36:38.547Z,77.39
2022-11-16T11:39:26.603Z,77.98
2022-11-16T11:42:07.374Z,78.48
2022-11-16T11:44:45.526Z,78.24
2022-11-16T11:50:21.881Z,78.33
2022-11-16T11:53:19.467Z,77.83
2022-11-16T11:55:46.195Z,76.74
2022-11-16T11:58:19.525Z,76.94
2022-11-16T12:01:24.900Z,76.71
2022-11-16T12:04:44.175Z,76.62
2022-11-16T12:07:36.903Z,77.21
2022-11-16T12:10:22.584Z,76.47
2022-11-16T12:12:56.110Z,75.17
2022-11-16T12:15:55.366Z,75.70
2022-11-16T12:18:36.953Z,76.56
2022-11-16T12:21:27.032Z,77.37
2022-11-16T12:24:17.472Z,77.64
2022-11-16T12:27:12.379Z,77.07
2022-11-16T12:29:54.281Z,76.68
2022-11-16T12:33:02.469Z,74.33
2022-11-16T12:35:53.172Z,73.87
2022-11-16T12:38:38.055Z,74.65
2022-11-16T12:41:31.223Z,74.56
2022-11-16T12:44:00.776Z,74.21
2022-11-16T12:46:55.705Z,75.49
2022-11-16T12:49:40.041Z,76.17
2022-11-16T12:52:45.574Z,76.25
2022-11-16T12:55:26.278Z,75.79
2022-11-16T12:58:21.956Z,76.45
2022-11-16T13:00:54.699Z,76.41
2022-11-16T13:03:54.309Z,75.92
2022-11-16T13:06:32.780Z,76.40
2022-11-16T13:09:28.702Z,76.40
2022-11-16T13:11:58.579Z,75.93
2022-11-16T13:14:38.084Z,75.42
2022-11-16T13:17:06.763Z,75.82
2022-11-16T13:19:39.915Z,75.15
2022-11-16T13:22:33.019Z,76.08
2022-11-16T13:25:20.957Z,75.44
2022-11-16T13:27:58.426Z,76.77
2022-11-16T13:30:33.620Z,76.33
2022-11-16T13:33:40.744Z,76.48
2022-11-16T13:36:32.460Z,75.47
2022-11-16T13:38:59.370Z,76.83
2022-11-16T13:41:50.603Z,77.31
2022-11-16T13:44:22.976Z,76.66
2022-11-16T13:47:04.073Z,76.57
2022-11-16T13:49:35.035Z,75.23
2022-11-16T13:52:23.118Z,74.95
2022-11-16T13:55:22.121Z,75.62
2022-11-16T13:57:59.373Z,76.02
2022-11-16T14:00:33.576Z,76.17
2022-11-16T14:03:16.430Z,75.23
2022-11-16T14:05:48.251Z,75.55
2022-11-16T14:08:26.777Z,75.94
2022-11-16T14:10:53.281Z,74.29
2022-11-16T14:13:39.981Z,74.26
2022-11-16T14:16:21.857Z,75.51
2022-11-16T14:19:00.326Z,75.64
2022-11-16T14:21:58.055Z,75.47
2022-11-16T14:24:49.012Z,76.67
2022-11-16T14:27:49.392Z,76.57
2022-11-16T14:30:35.805Z,75.80
2022-11-16T14:33:02.867Z,76.23
2022-11-16T14:35:39.049Z,76.34
2022-11-16T14:38:42.026Z,76.56
2022-11-16T14:41:21.179Z,75.64
2022-11-16T14:43:53.089Z,75.99
2022-11-16T14:46:27.145Z,75.91
2022-11-16T14:49:01.041Z,75.61
2022-11-16T14:51:31.419Z,76.21
2022-11-16T14:54:19.348Z,76.12
2022-11-16T14:57:20.474Z,74.06
2022-11-16T15:00:07.031Z,73.74
2022-11-16T15:02:35.433Z,71.51
2022-11-16T15:05:05.215Z,73.22
2022-11-16T15:07:33.961Z,72.88
2022-11-16T15:10:06.333Z,72.36
2022-11-16T15:12:41.723Z,72.66
2022-11-16T15:15:27.992Z,74.46
2022-11-16T15:18:12.206Z,73.31
2022-11-16T15:20:52.576Z,72.43
2022-11-16T15:23:21.599Z,73.11
2022-11-16T15:25:54.571Z,73.58
2022-11-16T15:28:34.970Z,75.17
2022-11-16T15:31:06.081Z,74.19
2022-11-16T15:33:40.472Z,74.20
2022-11-16T15:36:37.762Z,74.22
2022-11-16T15:39:06.316Z,72.85
2022-11-16T15:41:34.198Z,73.76
2022-11-16T15:44:15.052Z,74.81
2022-11-16T15:46:47.324Z,73.95
2022-11-16T15:49:41.049Z,73.92
2022-11-16T15:52:07.752Z,74.26
2022-11-16T15:55:02.040Z,74.31
2022-11-16T15:57:31.248Z,73.78
2022-11-16T16:00:02.277Z,74.05
2022-11-16T16:02:32.920Z,74.68
2022-11-16T16:05:04.993Z,75.19
2022-11-16T16:07:40.012Z,75.15
2022-11-16T16:10:30.119Z,75.49
2022-11-16T16:13:00.541Z,76.07
2022-11-16T16:15:43.204Z,75.81
2022-11-16T16:18:41.305Z,75.92
2022-11-16T16:21:09.620Z,76.39
2022-11-16T16:24:10.689Z,75.44
2022-11-16T16:26:39.317Z,75.45
2022-11-16T16:29:09.975Z,75.65
2022-11-16T16:31:42.776Z,76.26
2022-11-16T16:34:13.874Z,76.31
2022-11-16T16:36:40.468Z,76.77
2022-11-16T16:39:07.329Z,76.80
2022-11-16T16:41:36.253Z,76.94
2022-11-16T16:44:09.572Z,77.06
2022-11-16T16:46:38.438Z,77.15
2022-11-16T16:49:08.181Z,77.68
2022-11-16T16:51:37.094Z,77.06
2022-11-16T16:54:03.940Z,78.04
2022-11-16T16:56:38.229Z,78.07
2022-11-16T16:59:19.804Z,78.46
2022-11-16T17:01:47.262Z,78.57
2022-11-16T17:04:37.274Z,78.72
2022-11-16T17:07:06.352Z,77.96
2022-11-16T17:09:33.893Z,78.10
2022-11-16T17:12:00.649Z,77.88
2022-11-16T17:14:29.367Z,77.05
2022-11-16T17:16:56.275Z,77.11
2022-11-16T17:19:26.125Z,77.33
2022-11-16T17:21:56.551Z,77.43
2022-11-16T17:24:24.174Z,77.13
2022-11-16T17:26:54.030Z,75.27
2022-11-16T17:29:23.438Z,75.76
2022-11-16T17:31:50.645Z,76.11
2022-11-16T17:34:19.375Z,75.47
2022-11-16T17:36:46.418Z,75.46
2022-11-16T17:39:23.500Z,75.89
2022-11-16T17:41:52.088Z,75.75
2022-11-16T17:44:22.100Z,75.64
2022-11-16T17:46:52.627Z,75.64
2022-11-16T17:49:19.476Z,75.25
2022-11-16T17:51:47.972Z,75.90
2022-11-16T17:54:17.965Z,76.20
2022-11-16T17:56:44.546Z,75.81
2022-11-16T17:59:14.553Z,74.95
2022-11-16T18:01:42.104Z,75.73
2022-11-16T18:04:08.852Z,74.05
2022-11-16T18:06:36.780Z,75.10
2022-11-16T18:09:06.841Z,75.71
2022-11-16T18:11:36.176Z,75.61
2022-11-16T18:14:06.256Z,75.57
2022-11-16T18:16:33.775Z,74.59
2022-11-16T18:19:03.004Z,74.30
2022-11-16T18:21:30.533Z,74.65
2022-11-16T18:23:59.463Z,74.40
2022-11-16T18:26:32.227Z,75.46
2022-11-16T18:29:09.170Z,75.48
2022-11-16T18:31:35.974Z,75.49
2022-11-16T18:34:05.380Z,75.11
2022-11-16T18:36:32.627Z,75.78
2022-11-16T18:38:59.326Z,76.11
2022-11-16T18:41:29.063Z,76.72
2022-11-16T18:43:58.576Z,76.02
2022-11-16T18:46:30.729Z,75.26
2022-11-16T18:48:58.105Z,76.60
2022-11-16T18:51:28.452Z,76.20
2022-11-16T18:53:55.657Z,76.39
2022-11-16T18:56:24.576Z,75.68
2022-11-16T18:58:53.229Z,76.08
2022-11-16T19:01:26.111Z,76.18
2022-11-16T19:03:54.855Z,76.45
2022-11-16T19:06:22.590Z,75.79
2022-11-16T19:09:03.671Z,75.69
2022-11-16T19:11:30.486Z,74.91
2022-11-16T19:14:09.480Z,75.20
2022-11-16T19:16:43.369Z,76.03
2022-11-16T19:19:22.205Z,75.30
2022-11-16T19:21:48.956Z,75.59
2022-11-16T19:24:17.194Z,75.70
2022-11-16T19:26:44.588Z,76.56
2022-11-16T19:29:11.386Z,76.76
2022-11-16T19:31:41.259Z,76.85
2022-11-16T19:34:10.984Z,77.32
2022-11-16T19:36:37.941Z,77.59
2022-11-16T19:39:08.991Z,77.47
2022-11-16T19:41:39.667Z,77.34
2022-11-16T19:44:06.333Z,76.61
2022-11-16T19:46:36.744Z,77.08
2022-11-16T19:49:03.773Z,77.30
2022-11-16T19:51:32.965Z,77.35
2022-11-16T19:54:01.574Z,77.73
2022-11-16T19:56:28.383Z,78.59
2022-11-16T19:58:59.564Z,77.68
2022-11-16T20:01:31.070Z,77.72
2022-11-16T20:04:05.167Z,77.76
2022-11-16T20:06:35.293Z,77.26
2022-11-16T20:09:11.056Z,77.01
2022-11-16T20:11:45.285Z,76.62
2022-11-16T20:14:15.768Z,76.99
2022-11-16T20:16:49.456Z,77.36
2022-11-16T20:19:29.545Z,77.49
2022-11-16T20:21:59.671Z,77.01
2022-11-16T20:24:26.569Z,77.38
2022-11-16T20:26:56.335Z,77.09
2022-11-16T20:29:25.217Z,77.37
2022-11-16T20:31:51.836Z,77.59
2022-11-16T20:34:22.321Z,77.38
2022-11-16T20:36:51.029Z,77.45
2022-11-16T20:39:20.205Z,78.05
2022-11-16T20:41:50.191Z,77.48
2022-11-16T20:44:26.355Z,77.59
2022-11-16T20:46:55.788Z,77.94
2022-11-16T20:49:26.054Z,77.88
2022-11-16T20:51:58.645Z,77.63
2022-11-16T20:54:29.121Z,77.62
2022-11-16T20:57:01.194Z,77.88
2022-11-16T20:59:29.336Z,78.02
2022-11-16T21:01:57.682Z,77.80
2022-11-16T21:04:26.295Z,76.90
2022-11-16T21:06:59.405Z,76.88
2022-11-16T21:09:26.621Z,77.18
2022-11-16T21:12:12.170Z,77.76
2022-11-16T21:14:40.310Z,77.12
2022-11-16T21:17:07.714Z,76.67
2022-11-16T21:19:34.503Z,76.24
2022-11-16T21:22:01.226Z,76.93
2022-11-16T21:24:35.599Z,76.75
2022-11-16T21:27:02.334Z,76.37
2022-11-16T21:29:31.242Z,77.13
2022-11-16T21:31:58.486Z,76.47
2022-11-16T21:34:28.011Z,76.53
2022-11-16T21:36:54.755Z,76.86
2022-11-16T21:39:21.617Z,77.04
2022-11-16T21:41:48.932Z,75.72
2022-11-16T21:44:20.589Z,75.87
2022-11-16T21:46:57.857Z,75.71
2022-11-16T21:49:26.840Z,75.59
2022-11-16T21:51:53.982Z,75.31
2022-11-16T21:54:21.546Z,75.92
2022-11-16T21:56:49.485Z,76.70
2022-11-16T21:59:19.534Z,76.38
2022-11-16T22:02:01.817Z,75.70
2022-11-16T22:04:47.228Z,75.44
2022-11-16T22:07:38.754Z,76.52
2022-11-16T22:10:16.050Z,76.74
2022-11-16T22:12:45.253Z,76.33
2022-11-16T22:15:14.806Z,76.52
2022-11-16T22:17:45.399Z,76.89
2022-11-16T22:20:13.539Z,76.68
2022-11-16T22:22:40.794Z,76.45
2022-11-16T22:25:14.222Z,75.73
2022-11-16T22:28:13.528Z,75.93
2022-11-16T22:30:36.303Z,75.25
2022-11-16T22:33:03.522Z,76.22
2022-11-16T22:35:32.344Z,76.08
2022-11-16T22:37:59.814Z,75.79
2022-11-16T22:40:30.500Z,75.96
2022-11-16T22:42:59.059Z,75.85
2022-11-16T22:45:26.349Z,76.56
2022-11-16T22:47:55.015Z,76.08
2022-11-16T22:50:24.242Z,75.93
2022-11-16T22:52:53.209Z,77.20
2022-11-16T22:55:22.036Z,76.88
2022-11-16T22:57:51.973Z,76.59
2022-11-16T23:00:24.563Z,76.14
2022-11-16T23:02:53.032Z,76.38
2022-11-16T23:05:20.898Z,76.11
2022-11-16T23:11:04.166Z,76.30
2022-11-16T23:14:20.410Z,76.68
2022-11-16T23:16:45.576Z,76.38
2022-11-16T23:19:37.105Z,76.27
2022-11-16T23:22:25.534Z,76.37
2022-11-16T23:25:10.873Z,76.43
2022-11-16T23:27:59.425Z,76.56
2022-11-16T23:30:26.383Z,76.42
2022-11-16T23:32:53.452Z,76.08
2022-11-16T23:35:20.855Z,75.38
2022-11-16T23:38:01.482Z,75.08
2022-11-16T23:40:34.194Z,74.87
2022-11-16T23:43:23.075Z,75.36
2022-11-16T23:45:50.689Z,76.54
2022-11-16T23:48:22.700Z,75.90
2022-11-16T23:50:49.276Z,76.08
2022-11-16T23:53:16.006Z,75.63
2022-11-16T23:55:42.555Z,75.54
2022-11-16T23:58:16.649Z,76.22
